createdAt,value
2022-09-06T00:01:57.574Z,54.25
2022-09-06T00:04:25.389Z,54.37
2022-09-06T00:06:53.274Z,54.26
2022-09-06T00:09:22.249Z,54.14
2022-09-06T00:11:49.913Z,54.19
2022-09-06T00:14:17.598Z,54.07
2022-09-06T00:16:45.311Z,54.53
2022-09-06T00:19:13.066Z,54.12
2022-09-06T00:21:40.752Z,54.30
2022-09-06T00:24:08.526Z,54.20
2022-09-06T00:26:37.738Z,54.20
2022-09-06T00:29:05.402Z,54.13
2022-09-06T00:31:35.280Z,54.23
2022-09-06T00:34:02.954Z,54.20
2022-09-06T00:36:31.100Z,54.22
2022-09-06T00:38:58.801Z,54.13
2022-09-06T00:41:26.482Z,54.31
2022-09-06T00:43:56.141Z,54.36
2022-09-06T00:46:28.063Z,54.08
2022-09-06T00:48:57.885Z,54.17
2022-09-06T00:51:25.730Z,54.27
2022-09-06T00:53:53.407Z,54.12
2022-09-06T00:56:21.083Z,54.31
2022-09-06T00:58:48.815Z,54.07
2022-09-06T01:01:18.230Z,54.23
2022-09-06T01:03:45.958Z,54.28
2022-09-06T01:06:20.145Z,54.25
2022-09-06T01:08:55.070Z,54.12
2022-09-06T01:11:30.275Z,54.21
2022-09-06T01:14:01.353Z,54.21
2022-09-06T01:16:35.166Z,54.05
2022-09-06T01:19:17.233Z,54.33
2022-09-06T01:21:47.812Z,54.17
2022-09-06T01:24:44.172Z,54.13
2022-09-06T01:27:53.848Z,54.06
2022-09-06T01:30:21.546Z,54.22
2022-09-06T01:32:52.517Z,54.18
2022-09-06T01:35:24.780Z,54.17
2022-09-06T01:37:52.480Z,54.17
2022-09-06T01:40:20.149Z,54.13
2022-09-06T01:42:47.868Z,54.06
2022-09-06T01:45:18.033Z,54.07
2022-09-06T01:47:49.848Z,54.10
2022-09-06T01:50:35.374Z,54.05
2022-09-06T01:53:09.230Z,54.12
2022-09-06T01:55:40.552Z,54.14
2022-09-06T01:58:25.695Z,54.16
2022-09-06T02:00:56.469Z,54.09
2022-09-06T02:03:26.458Z,54.06
2022-09-06T02:05:55.385Z,53.99
2022-09-06T02:08:24.501Z,54.16
2022-09-06T02:10:54.008Z,54.28
2022-09-06T02:13:21.651Z,54.15
2022-09-06T02:15:52.449Z,53.95
2022-09-06T02:18:23.614Z,54.14
2022-09-06T02:20:52.279Z,54.17
2022-09-06T02:23:19.989Z,54.20
2022-09-06T02:25:50.444Z,53.97
2022-09-06T02:28:18.361Z,54.15
2022-09-06T02:30:47.313Z,54.07
2022-09-06T02:33:17.249Z,54.04
2022-09-06T02:35:47.388Z,54.17
2022-09-06T02:38:15.173Z,54.18
2022-09-06T02:40:43.218Z,54.17
2022-09-06T02:43:10.825Z,54.20
2022-09-06T02:45:38.500Z,54.21
2022-09-06T02:48:06.324Z,54.23
2022-09-06T02:50:34.252Z,54.04
2022-09-06T02:53:04.881Z,54.21
2022-09-06T02:55:32.807Z,54.23
2022-09-06T02:58:00.485Z,54.06
2022-09-06T03:00:28.181Z,54.23
2022-09-06T03:02:55.818Z,54.11
2022-09-06T03:05:23.584Z,54.05
2022-09-06T03:07:51.230Z,54.21
2022-09-06T03:10:20.292Z,54.20
2022-09-06T03:12:47.966Z,54.16
2022-09-06T03:15:16.517Z,54.29
2022-09-06T03:17:44.365Z,54.16
2022-09-06T03:20:12.513Z,54.16
2022-09-06T03:22:40.316Z,54.20
2022-09-06T03:25:08.940Z,54.19
2022-09-06T03:27:37.923Z,54.05
2022-09-06T03:30:06.788Z,54.19
2022-09-06T03:32:34.427Z,54.21
2022-09-06T03:35:02.040Z,54.14
2022-09-06T03:37:29.708Z,54.16
2022-09-06T03:39:57.376Z,54.19
2022-09-06T03:42:26.555Z,54.32
2022-09-06T03:44:55.661Z,54.11
2022-09-06T03:47:23.289Z,54.21
2022-09-06T03:49:51.404Z,54.27
2022-09-06T03:52:19.207Z,54.31
2022-09-06T03:54:46.828Z,54.20
2022-09-06T03:57:14.517Z,54.14
2022-09-06T03:59:42.153Z,54.11
2022-09-06T04:02:11.396Z,54.26
2022-09-06T04:04:39.187Z,54.04
2022-09-06T04:07:06.885Z,54.16
2022-09-06T04:09:34.733Z,54.13
2022-09-06T04:12:02.485Z,54.04
2022-09-06T04:14:30.214Z,54.15
2022-09-06T04:16:57.919Z,54.08
2022-09-06T04:19:27.087Z,54.22
2022-09-06T04:21:54.848Z,54.20
2022-09-06T04:24:22.473Z,54.10
2022-09-06T04:26:50.085Z,54.24
2022-09-06T04:29:17.796Z,54.18
2022-09-06T04:31:45.579Z,54.20
2022-09-06T04:34:13.300Z,54.39
2022-09-06T04:36:46.481Z,54.54
2022-09-06T04:39:15.931Z,54.41
2022-09-06T04:41:43.733Z,54.23
2022-09-06T04:44:11.372Z,54.10
2022-09-06T04:46:39.003Z,53.84
2022-09-06T04:49:06.682Z,54.02
2022-09-06T04:51:34.325Z,54.16
2022-09-06T04:54:03.381Z,54.05
2022-09-06T04:56:31.231Z,53.97
2022-09-06T04:58:58.999Z,54.04
2022-09-06T05:01:27.239Z,54.06
2022-09-06T05:03:56.906Z,53.98
2022-09-06T05:06:25.367Z,54.04
2022-09-06T05:08:53.050Z,54.09
2022-09-06T05:11:22.041Z,54.06
2022-09-06T05:13:50.122Z,54.00
2022-09-06T05:16:17.922Z,54.01
2022-09-06T05:18:45.577Z,54.02
2022-09-06T05:21:13.189Z,53.92
2022-09-06T05:23:40.807Z,54.06
2022-09-06T05:26:08.500Z,54.20
2022-09-06T05:28:37.495Z,54.02
2022-09-06T05:31:09.174Z,53.96
2022-09-06T05:33:36.890Z,54.01
2022-09-06T05:36:05.043Z,53.93
2022-09-06T05:38:32.893Z,54.01
2022-09-06T05:41:00.634Z,54.07
2022-09-06T05:43:28.276Z,53.90
2022-09-06T05:45:57.344Z,54.01
2022-09-06T05:48:24.993Z,54.09
2022-09-06T05:51:01.089Z,53.96
2022-09-06T05:53:28.676Z,54.03
2022-09-06T05:55:56.317Z,54.01
2022-09-06T05:58:23.935Z,54.05
2022-09-06T06:00:51.607Z,53.94
2022-09-06T06:03:20.619Z,53.94
2022-09-06T06:05:48.378Z,53.93
2022-09-06T06:08:16.013Z,54.02
2022-09-06T06:10:43.648Z,53.90
2022-09-06T06:13:11.611Z,53.92
2022-09-06T06:15:39.271Z,53.94
2022-09-06T06:18:06.918Z,54.02
2022-09-06T06:20:35.969Z,53.95
2022-09-06T06:23:03.565Z,53.96
2022-09-06T06:25:31.181Z,54.10
2022-09-06T06:27:58.795Z,54.08
2022-09-06T06:30:26.603Z,54.06
2022-09-06T06:32:54.242Z,54.04
2022-09-06T06:35:21.877Z,54.09
2022-09-06T06:37:50.906Z,53.90
2022-09-06T06:40:18.547Z,54.31
2022-09-06T06:42:46.169Z,53.91
2022-09-06T06:45:13.897Z,54.05
2022-09-06T06:47:41.637Z,54.03
2022-09-06T06:50:09.945Z,54.09
2022-09-06T06:52:37.624Z,54.17
2022-09-06T06:55:07.121Z,54.14
2022-09-06T06:57:34.820Z,54.13
2022-09-06T07:00:03.704Z,54.14
2022-09-06T07:02:31.333Z,54.18
2022-09-06T07:05:00.179Z,54.03
2022-09-06T07:12:49.652Z,54.11
2022-09-06T07:15:17.545Z,54.27
2022-09-06T07:17:45.201Z,54.45
2022-09-06T07:20:13.866Z,54.43
2022-09-06T07:22:42.281Z,54.36
2022-09-06T07:25:12.207Z,54.22
2022-09-06T07:27:48.682Z,54.54
2022-09-06T07:30:19.475Z,54.47
2022-09-06T07:32:47.085Z,54.25
2022-09-06T07:35:14.849Z,54.44
2022-09-06T07:37:42.457Z,54.33
2022-09-06T07:40:11.578Z,54.64
2022-09-06T07:42:39.394Z,54.41
2022-09-06T07:45:07.798Z,54.54
2022-09-06T07:53:15.356Z,54.67
2022-09-06T07:55:45.321Z,54.28
2022-09-06T07:58:13.052Z,54.56
2022-09-06T08:00:41.251Z,54.70
2022-09-06T08:03:10.518Z,54.95
2022-09-06T08:11:14.064Z,54.59
2022-09-06T08:13:42.150Z,54.62
2022-09-06T08:16:10.693Z,55.09
2022-09-06T08:18:39.759Z,54.85
2022-09-06T08:21:12.193Z,54.86
2022-09-06T08:23:42.610Z,55.05
2022-09-06T08:26:10.259Z,55.13
2022-09-06T08:28:37.909Z,54.89
2022-09-06T08:31:09.413Z,55.01
2022-09-06T08:33:37.571Z,55.29
2022-09-06T08:36:07.105Z,55.27
2022-09-06T08:38:34.826Z,55.37
2022-09-06T08:41:11.006Z,55.12
2022-09-06T08:43:38.921Z,55.33
2022-09-06T08:46:07.532Z,55.62
2022-09-06T08:48:36.998Z,55.77
2022-09-06T08:51:15.825Z,55.58
2022-09-06T08:53:46.395Z,55.63
2022-09-06T08:56:16.631Z,55.64
2022-09-06T08:58:54.733Z,55.72
2022-09-06T09:01:25.261Z,55.45
2022-09-06T09:03:52.969Z,55.47
2022-09-06T09:06:21.969Z,55.53
2022-09-06T09:08:53.547Z,55.63
2022-09-06T09:11:21.886Z,55.52
2022-09-06T09:13:55.623Z,55.57
2022-09-06T09:16:23.873Z,55.64
2022-09-06T09:18:53.441Z,55.59
2022-09-06T09:21:26.805Z,55.61
2022-09-06T09:23:58.861Z,55.68
2022-09-06T09:26:27.917Z,55.58
2022-09-06T09:29:09.329Z,55.72
2022-09-06T09:31:38.628Z,55.64
2022-09-06T09:34:06.548Z,55.52
2022-09-06T09:36:35.581Z,55.71
2022-09-06T09:39:03.169Z,55.60
2022-09-06T09:41:33.191Z,55.67
2022-09-06T09:44:04.639Z,55.55
2022-09-06T09:46:33.963Z,55.59
2022-09-06T09:49:03.817Z,55.67
2022-09-06T09:51:32.150Z,55.59
2022-09-06T09:54:01.880Z,55.77
2022-09-06T09:56:39.113Z,55.75
2022-09-06T09:59:09.157Z,55.74
2022-09-06T10:01:36.761Z,55.74
2022-09-06T10:07:09.602Z,55.87
2022-09-06T10:09:40.150Z,55.73
2022-09-06T10:12:07.962Z,55.99
2022-09-06T10:14:46.236Z,56.95
2022-09-06T10:17:21.456Z,57.52
2022-09-06T10:19:49.135Z,57.42
2022-09-06T10:22:23.427Z,57.75
2022-09-06T10:25:24.622Z,57.52
2022-09-06T10:28:14.326Z,57.30
2022-09-06T10:30:44.655Z,57.19
2022-09-06T10:33:19.562Z,57.31
2022-09-06T10:35:47.189Z,57.10
2022-09-06T10:38:23.632Z,57.28
2022-09-06T10:40:56.880Z,57.10
2022-09-06T10:43:26.023Z,57.02
2022-09-06T10:45:58.564Z,57.07
2022-09-06T10:48:28.214Z,57.20
2022-09-06T10:50:57.398Z,57.00
2022-09-06T10:53:33.761Z,57.14
2022-09-06T10:56:07.172Z,57.17
2022-09-06T11:01:34.485Z,57.02
2022-09-06T11:04:06.853Z,57.04
2022-09-06T11:06:44.746Z,57.06
2022-09-06T11:09:14.914Z,57.34
2022-09-06T11:11:44.914Z,57.17
2022-09-06T11:14:15.362Z,57.15
2022-09-06T11:16:50.381Z,57.35
2022-09-06T11:19:21.473Z,57.19
2022-09-06T11:22:12.092Z,57.05
2022-09-06T11:24:47.549Z,57.24
2022-09-06T11:27:16.093Z,57.18
2022-09-06T11:29:46.585Z,57.32
2022-09-06T11:32:30.568Z,57.42
2022-09-06T11:34:58.737Z,57.34
2022-09-06T11:37:27.369Z,57.28
2022-09-06T11:43:16.881Z,57.37
2022-09-06T11:45:48.002Z,57.34
2022-09-06T11:48:44.826Z,57.53
2022-09-06T11:51:12.425Z,57.52
2022-09-06T11:54:02.181Z,57.48
2022-09-06T11:56:30.940Z,57.66
2022-09-06T11:58:59.214Z,57.50
2022-09-06T12:01:38.978Z,57.37
2022-09-06T12:04:10.694Z,57.39
2022-09-06T12:06:43.632Z,57.67
2022-09-06T12:09:35.726Z,57.55
2022-09-06T12:12:03.316Z,57.58
2022-09-06T12:14:35.785Z,57.78
2022-09-06T12:17:28.670Z,57.84
2022-09-06T12:20:06.433Z,57.77
2022-09-06T12:23:04.317Z,57.81
2022-09-06T12:25:56.317Z,57.88
2022-09-06T12:28:30.732Z,57.74
2022-09-06T12:30:58.366Z,57.77
2022-09-06T12:33:29.146Z,57.93
2022-09-06T12:36:14.968Z,58.06
2022-09-06T12:38:58.212Z,57.97
2022-09-06T12:41:26.257Z,57.79
2022-09-06T12:43:55.706Z,57.86
2022-09-06T12:46:24.722Z,57.88
2022-09-06T12:49:08.454Z,57.97
2022-09-06T12:51:36.565Z,57.82
2022-09-06T12:54:05.124Z,58.06
2022-09-06T12:56:34.009Z,58.01
2022-09-06T12:59:14.112Z,57.75
2022-09-06T13:01:42.552Z,58.13
2022-09-06T13:04:13.557Z,57.98
2022-09-06T13:06:43.082Z,57.97
2022-09-06T13:09:12.318Z,58.00
2022-09-06T13:11:41.742Z,58.06
2022-09-06T13:14:14.040Z,58.17
2022-09-06T13:16:44.285Z,58.24
2022-09-06T13:19:13.752Z,58.13
2022-09-06T13:21:42.227Z,58.24
2022-09-06T13:24:19.519Z,58.16
2022-09-06T13:26:47.138Z,58.38
2022-09-06T13:29:23.624Z,58.38
2022-09-06T13:31:52.104Z,58.12
2022-09-06T13:34:25.165Z,58.03
2022-09-06T13:36:53.427Z,58.19
2022-09-06T13:39:32.444Z,58.25
2022-09-06T13:42:11.780Z,58.22
2022-09-06T13:44:39.870Z,58.09
2022-09-06T13:47:07.441Z,58.24
2022-09-06T13:49:36.395Z,58.13
2022-09-06T13:52:04.873Z,58.25
2022-09-06T13:54:32.934Z,58.35
2022-09-06T13:57:01.585Z,58.14
2022-09-06T13:59:30.221Z,58.09
2022-09-06T14:02:02.163Z,58.14
2022-09-06T14:04:29.985Z,58.20
2022-09-06T14:06:59.419Z,58.16
2022-09-06T14:09:27.232Z,58.34
2022-09-06T14:11:55.084Z,58.27
2022-09-06T14:14:22.761Z,58.18
2022-09-06T14:16:50.448Z,58.35
2022-09-06T14:19:18.251Z,58.26
2022-09-06T14:21:46.028Z,58.24
2022-09-06T14:24:15.081Z,58.33
2022-09-06T14:26:43.309Z,58.16
2022-09-06T14:29:10.917Z,58.33
2022-09-06T14:31:38.889Z,58.36
2022-09-06T14:34:06.531Z,58.40
2022-09-06T14:36:34.530Z,58.34
2022-09-06T14:39:02.715Z,58.28
2022-09-06T14:41:31.800Z,58.32
2022-09-06T14:43:59.630Z,58.52
2022-09-06T14:46:28.120Z,58.66
2022-09-06T14:49:00.014Z,59.15
2022-09-06T14:51:27.936Z,58.65
2022-09-06T14:53:56.574Z,58.40
2022-09-06T14:56:24.365Z,58.55
2022-09-06T14:58:54.694Z,58.36
2022-09-06T15:01:23.466Z,58.37
2022-09-06T15:03:52.524Z,58.22
2022-09-06T15:06:21.410Z,57.98
2022-09-06T15:08:49.403Z,58.15
2022-09-06T15:11:17.271Z,57.94
2022-09-06T15:13:44.953Z,57.89
2022-09-06T15:16:14.105Z,57.85
2022-09-06T15:18:41.878Z,57.88
2022-09-06T15:21:10.354Z,57.61
2022-09-06T15:23:38.322Z,57.70
2022-09-06T15:26:07.585Z,57.61
2022-09-06T15:28:35.740Z,57.85
2022-09-06T15:31:03.573Z,57.45
2022-09-06T15:36:05.888Z,57.93
2022-09-06T15:38:33.719Z,57.57
2022-09-06T15:41:08.275Z,57.37
2022-09-06T15:43:36.213Z,57.27
2022-09-06T15:46:04.298Z,57.38
2022-09-06T15:48:40.362Z,57.39
2022-09-06T15:51:08.013Z,57.76
2022-09-06T15:53:35.878Z,58.05
2022-09-06T15:56:04.397Z,57.89
2022-09-06T15:58:32.201Z,58.04
2022-09-06T16:01:04.007Z,58.36
2022-09-06T16:03:33.607Z,58.31
2022-09-06T16:08:58.369Z,58.95
2022-09-06T16:11:26.292Z,59.60
2022-09-06T16:13:54.183Z,59.66
2022-09-06T16:16:22.630Z,59.60
2022-09-06T16:18:53.075Z,59.74
2022-09-06T16:21:23.801Z,59.90
2022-09-06T16:23:52.531Z,60.26
2022-09-06T16:26:21.711Z,60.43
2022-09-06T16:28:50.009Z,60.79
2022-09-06T16:31:18.074Z,61.29
2022-09-06T16:33:46.146Z,61.55
2022-09-06T16:36:15.281Z,61.25
2022-09-06T16:38:43.032Z,61.57
2022-09-06T16:41:11.782Z,62.04
2022-09-06T16:43:39.541Z,62.18
2022-09-06T16:46:07.445Z,62.61
2022-09-06T16:48:35.284Z,63.31
2022-09-06T16:51:10.911Z,62.45
2022-09-06T16:53:41.091Z,63.35
2022-09-06T16:56:09.237Z,63.15
2022-09-06T16:58:36.896Z,63.13
2022-09-06T17:01:04.683Z,63.48
2022-09-06T17:03:32.724Z,62.48
2022-09-06T17:06:00.433Z,63.00
2022-09-06T17:08:28.136Z,63.35
2022-09-06T17:10:58.468Z,63.31
2022-09-06T17:13:27.098Z,63.35
2022-09-06T17:16:12.532Z,63.07
2022-09-06T17:18:40.200Z,62.60
2022-09-06T17:21:08.133Z,62.79
2022-09-06T17:23:36.042Z,63.08
2022-09-06T17:26:05.237Z,63.43
2022-09-06T17:28:34.283Z,62.74
2022-09-06T17:31:03.648Z,63.29
2022-09-06T17:33:31.483Z,63.22
2022-09-06T17:36:06.819Z,63.01
2022-09-06T17:38:34.694Z,62.84
2022-09-06T17:41:02.465Z,62.54
2022-09-06T17:43:32.431Z,62.56
2022-09-06T17:46:00.204Z,62.29
2022-09-06T17:48:28.907Z,62.36
2022-09-06T17:50:57.216Z,62.02
2022-09-06T17:53:25.024Z,62.05
2022-09-06T17:55:52.790Z,62.13
2022-09-06T17:58:20.727Z,63.78
2022-09-06T18:00:50.429Z,62.80
2022-09-06T18:03:18.290Z,62.53
2022-09-06T18:05:46.026Z,62.96
2022-09-06T18:08:13.796Z,62.91
2022-09-06T18:10:41.595Z,63.26
2022-09-06T18:13:09.399Z,63.33
2022-09-06T18:15:41.513Z,63.11
2022-09-06T18:18:10.975Z,62.79
2022-09-06T18:20:38.896Z,62.73
2022-09-06T18:23:06.592Z,62.86
2022-09-06T18:25:34.251Z,62.60
2022-09-06T18:28:01.922Z,62.97
2022-09-06T18:30:29.639Z,62.72
2022-09-06T18:32:57.448Z,62.71
2022-09-06T18:35:26.602Z,62.85
2022-09-06T18:37:54.337Z,63.69
2022-09-06T18:40:22.042Z,63.68
2022-09-06T18:42:49.773Z,63.51
2022-09-06T18:45:17.498Z,63.55
2022-09-06T18:47:45.575Z,63.14
2022-09-06T18:50:13.303Z,62.88
2022-09-06T18:52:42.356Z,63.00
2022-09-06T18:55:10.401Z,62.69
2022-09-06T18:57:38.110Z,62.35
2022-09-06T19:00:07.141Z,62.07
2022-09-06T19:02:34.873Z,61.93
2022-09-06T19:05:02.602Z,61.57
2022-09-06T19:07:30.289Z,61.04
2022-09-06T19:09:59.785Z,60.21
2022-09-06T19:12:27.627Z,60.51
2022-09-06T19:15:00.982Z,60.36
2022-09-06T19:17:28.714Z,60.38
2022-09-06T19:19:56.443Z,60.73
2022-09-06T19:22:24.315Z,60.82
2022-09-06T19:24:52.072Z,61.16
2022-09-06T19:27:21.117Z,61.35
2022-09-06T19:29:48.825Z,60.56
2022-09-06T19:32:18.597Z,60.97
2022-09-06T19:34:46.405Z,60.28
2022-09-06T19:37:14.144Z,59.76
2022-09-06T19:39:41.823Z,60.15
2022-09-06T19:42:09.523Z,59.69
2022-09-06T19:44:38.668Z,60.09
2022-09-06T19:47:06.518Z,60.08
2022-09-06T19:49:34.361Z,59.59
2022-09-06T19:52:04.222Z,60.79
2022-09-06T19:54:31.924Z,60.70
2022-09-06T19:56:59.573Z,59.76
2022-09-06T19:59:27.522Z,60.12
2022-09-06T20:01:56.595Z,61.02
2022-09-06T20:04:24.913Z,60.60
2022-09-06T20:06:53.309Z,60.57
2022-09-06T20:09:21.093Z,59.88
2022-09-06T20:11:48.760Z,59.19
2022-09-06T20:14:16.507Z,60.37
2022-09-06T20:16:44.370Z,59.68
2022-09-06T20:19:14.905Z,59.47
2022-09-06T20:21:43.364Z,59.77
2022-09-06T20:24:11.135Z,59.63
2022-09-06T20:26:40.326Z,61.10
2022-09-06T20:29:08.113Z,59.79
2022-09-06T20:31:36.640Z,59.34
2022-09-06T20:34:05.642Z,61.21
2022-09-06T20:36:34.755Z,59.45
2022-09-06T20:39:03.137Z,60.74
2022-09-06T20:41:30.849Z,59.95
2022-09-06T20:43:59.387Z,59.88
2022-09-06T20:46:27.727Z,60.59
2022-09-06T20:48:56.672Z,59.67
2022-09-06T20:51:24.843Z,59.96
2022-09-06T20:53:54.606Z,60.31
2022-09-06T20:56:23.175Z,60.63
2022-09-06T20:58:51.332Z,60.60
2022-09-06T21:01:22.421Z,61.32
2022-09-06T21:03:51.361Z,60.35
2022-09-06T21:06:19.126Z,60.97
2022-09-06T21:08:47.417Z,60.54
2022-09-06T21:11:16.493Z,59.59
2022-09-06T21:13:44.141Z,60.50
2022-09-06T21:16:11.843Z,60.00
2022-09-06T21:18:39.533Z,60.04
2022-09-06T21:21:07.947Z,59.84
2022-09-06T21:23:36.744Z,59.85
2022-09-06T21:26:08.434Z,59.70
2022-09-06T21:28:38.194Z,60.30
2022-09-06T21:31:08.119Z,60.22
2022-09-06T21:33:36.325Z,59.29
2022-09-06T21:36:06.797Z,59.03
2022-09-06T21:38:34.489Z,59.09
2022-09-06T21:41:02.243Z,59.88
2022-09-06T21:43:30.043Z,59.80
2022-09-06T21:46:01.468Z,59.17
2022-09-06T21:48:29.196Z,59.54
2022-09-06T21:50:57.248Z,59.68
2022-09-06T21:53:26.549Z,59.47
2022-09-06T21:55:54.271Z,59.40
2022-09-06T21:58:21.958Z,59.27
2022-09-06T22:00:52.801Z,59.38
2022-09-06T22:03:22.010Z,59.13
2022-09-06T22:05:50.145Z,59.65
2022-09-06T22:08:17.949Z,59.25
2022-09-06T22:10:45.638Z,59.07
2022-09-06T22:13:13.297Z,58.90
2022-09-06T22:15:41.079Z,59.68
2022-09-06T22:18:08.926Z,59.07
2022-09-06T22:20:38.030Z,59.03
2022-09-06T22:23:05.875Z,59.04
2022-09-06T22:25:33.726Z,59.82
2022-09-06T22:28:01.500Z,58.97
2022-09-06T22:30:29.174Z,59.47
2022-09-06T22:32:56.854Z,58.98
2022-09-06T22:35:24.589Z,58.76
2022-09-06T22:37:53.633Z,58.89
2022-09-06T22:40:21.315Z,58.93
2022-09-06T22:42:49.243Z,58.64
2022-09-06T22:45:17.041Z,58.60
2022-09-06T22:47:44.700Z,58.71
2022-09-06T22:50:12.354Z,58.85
2022-09-06T22:52:40.008Z,59.40
2022-09-06T22:55:11.278Z,58.84
2022-09-06T22:57:39.043Z,59.36
2022-09-06T23:00:07.955Z,58.84
2022-09-06T23:02:35.601Z,58.50
2022-09-06T23:05:03.334Z,59.11
2022-09-06T23:07:31.037Z,59.06
2022-09-06T23:09:58.764Z,59.02
2022-09-06T23:12:27.821Z,58.47
2022-09-06T23:14:55.505Z,58.58
2022-09-06T23:17:23.470Z,58.98
2022-09-06T23:19:51.143Z,58.29
2022-09-06T23:22:18.921Z,58.31
2022-09-06T23:24:46.714Z,58.17
2022-09-06T23:27:14.391Z,58.44
2022-09-06T23:29:43.840Z,58.09
2022-09-06T23:32:11.548Z,58.21
2022-09-06T23:34:39.364Z,58.45
2022-09-06T23:37:07.009Z,58.43
2022-09-06T23:39:34.767Z,58.09
2022-09-06T23:42:02.754Z,58.02
2022-09-06T23:44:30.404Z,57.90
2022-09-06T23:46:59.524Z,58.13
2022-09-06T23:49:27.236Z,58.26
2022-09-06T23:51:55.362Z,58.00
2022-09-06T23:54:23.005Z,58.23
2022-09-06T23:56:50.652Z,57.90
2022-09-06T23:59:18.323Z,59.04
